Jump to content

  •  

SOUTHWEST AIRLINES FLIGHT WN1664 FLOWN ON 12-01-2017 BY CAPTAIN TYLER HANUS

Pilot StatsCaptain Tyler Hanus (LDP525) • 262.7 total hours • 63 total flights [View Logbook]
FLIGHT DETAILS
StatusReceived and approved on 2017-11-30 at 21:11:36
Origin AirportDallas Love (KDAL) • Dallas, Texas, United States (487 feet MSL)
Filed Flight PlanFLIGHT PLANNER OFFLINE
Destination AirportPhoenix Sky Harbor Intl (KPHX) • Phoenix, Arizona, United States (1,135 feet MSL)
Alternate AirportNone Filed
AirlineSouthwest Airlines
AircraftBoeing 737-700 | Winglets (73W / B737-700)
FS Aircraft UsedBoeing 737-7H4NG Southwest Airlines N708SW Goldstar Textures
Cruising AltitudeFL360
Distance Flown762 nautical miles
Passengers Onboard63 passengers (46.32% full)
DEPARTURE DETAILS
Time Out18:28:40
Taxi Data119,226 lbs total with 17,877 lbs of fuel onboard
Takeoff Data18:40:46 (12 minutes after leaving gate/ramp) • 118,772 lbs total • 5° pitch at 134 knots
Departure METARKDAL 302253Z 34007KT 10SM FEW150 BKN250 19/07 A3019 RMK AO2 SLP218 T01940072 PNO $
ARRIVAL DETAILS
Landing Data19:45:39 • 107,320 lbs total • 3° pitch doing 118 knots at a rate of -141.49 feet/minute with 5,820 lbs of fuel onboard
Time In19:49:58 (4 minutes after landing)
Ramp Weight107,169 lbs total
Total Fuel Used12,057 lbs
Total Block Time02:16:43 (2.3 hours) while 16 minutes were spent on the ground
Arrival METARKPHX 010151Z 11005KT 10SM BKN130 OVC150 22/04 A2999 RMK AO2 SLP143 T02170044
MISCELLANEOUS DETAILS
LiveDISPATCH Version4.8.3.1
FS Version
FSUIPC Version4.97
OS VersionWindows 7 32-bit
Screen Resolution1360 x 768
Pilot's CommentsNo Comments Reported
FLIGHT MAP